Philadelphia, Pennsylvania
Traffic Map
Current Weather Conditions
Philadelphia, Pennsylvania
Clear
Clear
26°
Feels Like: 16°
Wind Chill: 16° Ceiling: Unl
Heat Index: 26° Visibility: 10mi
Dew Point: 16° Wind: 10mph
Humidity: 66% Direction: 350° (N)
Pressure: 30.11in Gusts: 0mph
Raw Report DataKPHL 100954Z 35009KT 10SM CLR M03/M09 A3011 RMK AO2 SLP195 T10331089 $
Traffic Incident Summary
Active as of:
Severity:
Category:
InformationThere was an issue retrieving the traffic information for this location. Please try a different location or try again shortly.
Advertisements